createdAt,value
2019-06-26T00:02:27.301Z,23.63
2019-06-26T00:04:56.705Z,23.54
2019-06-26T00:07:26.141Z,23.53
2019-06-26T00:09:55.620Z,23.58
2019-06-26T00:12:25.143Z,23.55
2019-06-26T00:14:54.658Z,23.49
2019-06-26T00:17:24.135Z,23.47
2019-06-26T00:19:53.523Z,23.44
2019-06-26T00:22:22.954Z,23.48
2019-06-26T00:24:52.437Z,23.39
2019-06-26T00:27:22.156Z,23.41
2019-06-26T00:29:51.595Z,23.32
2019-06-26T00:32:20.993Z,23.30
2019-06-26T00:34:50.498Z,23.33
2019-06-26T00:37:20.062Z,23.41
2019-06-26T00:39:49.437Z,23.46
2019-06-26T00:42:18.847Z,23.57
2019-06-26T00:44:48.368Z,23.59
2019-06-26T00:47:17.908Z,23.57
2019-06-26T00:49:47.304Z,23.57
2019-06-26T00:52:16.843Z,23.57
2019-06-26T00:54:46.217Z,23.47
2019-06-26T00:57:15.608Z,23.48
2019-06-26T00:59:45.122Z,23.52
2019-06-26T01:02:14.616Z,23.51
2019-06-26T01:04:46.173Z,23.49
2019-06-26T01:07:15.595Z,23.45
2019-06-26T01:09:45.071Z,23.48
2019-06-26T01:12:14.559Z,23.57
2019-06-26T01:14:43.981Z,23.60
2019-06-26T01:17:13.366Z,23.56
2019-06-26T01:19:42.957Z,23.48
2019-06-26T01:22:12.475Z,23.45
2019-06-26T01:24:41.861Z,23.36
2019-06-26T01:27:11.251Z,23.31
2019-06-26T01:29:40.877Z,23.26
2019-06-26T01:32:10.270Z,23.22
2019-06-26T01:34:39.759Z,23.23
2019-06-26T01:37:09.286Z,23.26
2019-06-26T01:39:38.703Z,23.29
2019-06-26T01:42:08.101Z,23.28
2019-06-26T01:44:37.627Z,23.24
2019-06-26T01:47:07.110Z,23.26
2019-06-26T01:49:36.490Z,23.27
2019-06-26T01:52:05.911Z,23.20
2019-06-26T01:54:35.401Z,23.12
2019-06-26T01:57:04.902Z,23.03
2019-06-26T01:59:34.329Z,22.98
2019-06-26T02:02:03.725Z,22.98
2019-06-26T02:04:33.345Z,23.09
2019-06-26T02:07:02.954Z,23.11
2019-06-26T02:09:32.318Z,23.07
2019-06-26T02:12:01.815Z,23.13
2019-06-26T02:14:31.989Z,23.19
2019-06-26T02:17:02.655Z,23.20
2019-06-26T02:19:32.147Z,23.26
2019-06-26T02:22:01.674Z,23.24
2019-06-26T02:24:31.067Z,23.22
2019-06-26T02:27:00.496Z,23.28
2019-06-26T02:29:30.071Z,23.34
2019-06-26T02:31:59.631Z,23.28
2019-06-26T02:34:29.039Z,23.30
2019-06-26T02:36:58.491Z,23.26
2019-06-26T02:39:28.272Z,23.27
2019-06-26T02:41:57.758Z,23.20
2019-06-26T02:44:27.174Z,23.20
2019-06-26T02:47:13.606Z,23.11
2019-06-26T02:49:27.756Z,23.11
2019-06-26T02:51:57.216Z,23.11
2019-06-26T02:54:26.664Z,23.12
2019-06-26T02:56:56.153Z,23.02
2019-06-26T02:59:25.581Z,23.03
2019-06-26T03:01:54.954Z,23.13
2019-06-26T03:04:24.456Z,23.14
2019-06-26T03:06:53.963Z,23.16
2019-06-26T03:09:23.543Z,23.22
2019-06-26T03:11:52.938Z,23.27
2019-06-26T03:14:22.482Z,23.40
2019-06-26T03:16:51.981Z,23.48
2019-06-26T03:19:21.632Z,23.51
2019-06-26T03:21:51.075Z,23.50
2019-06-26T03:24:20.570Z,23.52
2019-06-26T03:26:50.058Z,23.52
2019-06-26T03:29:19.496Z,23.43
2019-06-26T03:31:48.892Z,23.35
2019-06-26T03:34:18.356Z,23.38
2019-06-26T03:36:47.898Z,23.47
2019-06-26T03:39:17.280Z,23.64
2019-06-26T03:41:46.685Z,23.75
2019-06-26T03:44:16.326Z,23.82
2019-06-26T03:46:45.799Z,23.82
2019-06-26T03:49:15.193Z,23.81
2019-06-26T03:51:44.662Z,23.80
2019-06-26T03:54:14.146Z,23.83
2019-06-26T03:56:43.652Z,24.02
2019-06-26T03:59:13.077Z,24.22
2019-06-26T04:01:42.532Z,24.41
2019-06-26T04:04:12.159Z,24.61
2019-06-26T04:06:41.798Z,24.78
2019-06-26T04:09:11.533Z,24.90
2019-06-26T04:11:41.034Z,25.09
2019-06-26T04:14:10.468Z,25.27
2019-06-26T04:16:39.853Z,25.44
2019-06-26T04:19:09.341Z,25.51
2019-06-26T04:21:38.990Z,25.51
2019-06-26T04:24:08.370Z,25.49
2019-06-26T04:26:37.773Z,25.74
2019-06-26T04:29:07.392Z,25.83
2019-06-26T04:31:36.890Z,26.00
2019-06-26T04:34:06.253Z,26.19
2019-06-26T04:36:35.733Z,26.59
2019-06-26T04:39:06.933Z,26.97
2019-06-26T04:41:36.440Z,27.15
2019-06-26T04:44:05.842Z,27.58
2019-06-26T04:46:35.256Z,27.52
2019-06-26T04:49:04.957Z,27.52
2019-06-26T04:51:34.421Z,27.52
2019-06-26T04:54:03.914Z,27.48
2019-06-26T04:56:33.482Z,27.38
2019-06-26T04:59:02.898Z,27.42
2019-06-26T05:01:32.282Z,27.58
2019-06-26T05:04:01.830Z,28.03
2019-06-26T05:06:31.391Z,28.30
2019-06-26T05:09:00.770Z,28.59
2019-06-26T05:11:30.162Z,28.79
2019-06-26T05:13:59.687Z,28.91
2019-06-26T05:16:29.186Z,28.99
2019-06-26T05:18:58.604Z,28.54
2019-06-26T05:21:28.046Z,28.41
2019-06-26T05:23:57.578Z,28.52
2019-06-26T05:26:27.117Z,28.11
2019-06-26T05:28:56.537Z,27.84
2019-06-26T05:31:26.043Z,27.73
2019-06-26T05:33:55.420Z,27.96
2019-06-26T05:36:24.898Z,28.46
2019-06-26T05:38:54.466Z,28.61
2019-06-26T05:41:24.022Z,28.69
2019-06-26T05:43:53.436Z,28.98
2019-06-26T05:46:30.996Z,28.65
2019-06-26T05:48:54.009Z,28.51
2019-06-26T05:51:23.541Z,28.59
2019-06-26T05:53:52.920Z,28.81
2019-06-26T05:56:22.320Z,28.59
2019-06-26T05:58:51.941Z,28.43
2019-06-26T06:01:21.777Z,28.49
2019-06-26T06:03:51.232Z,28.40
2019-06-26T06:06:20.687Z,28.71
2019-06-26T06:08:50.252Z,29.45
2019-06-26T06:11:19.912Z,29.79
2019-06-26T06:13:49.425Z,30.29
2019-06-26T06:16:19.056Z,30.50
2019-06-26T06:18:48.436Z,30.34
2019-06-26T06:21:17.868Z,30.23
2019-06-26T06:23:47.333Z,30.56
2019-06-26T06:26:18.207Z,30.53
2019-06-26T06:28:47.637Z,30.23
2019-06-26T06:31:17.010Z,30.19
2019-06-26T06:33:46.502Z,29.94
2019-06-26T06:36:16.012Z,29.75
2019-06-26T06:38:45.393Z,29.38
2019-06-26T06:41:14.763Z,29.00
2019-06-26T06:43:44.268Z,28.98
2019-06-26T06:46:13.736Z,29.07
2019-06-26T06:48:43.110Z,28.77
2019-06-26T06:51:12.931Z,28.88
2019-06-26T06:53:42.317Z,28.88
2019-06-26T06:56:11.751Z,28.94
2019-06-26T06:58:41.335Z,28.89
2019-06-26T07:01:10.841Z,29.12
2019-06-26T07:03:40.313Z,29.07
2019-06-26T07:06:09.695Z,28.98
2019-06-26T07:08:39.201Z,29.06
2019-06-26T07:11:08.676Z,29.02
2019-06-26T07:13:38.092Z,29.14
2019-06-26T07:16:07.490Z,29.36
2019-06-26T07:18:36.979Z,29.28
2019-06-26T07:21:06.614Z,29.22
2019-06-26T07:23:35.996Z,29.21
2019-06-26T07:26:05.601Z,29.26
2019-06-26T07:28:35.214Z,29.04
2019-06-26T07:31:04.634Z,28.97
2019-06-26T07:33:34.145Z,29.14
2019-06-26T07:36:03.873Z,29.07
2019-06-26T07:38:33.326Z,29.18
2019-06-26T07:41:02.894Z,29.29
2019-06-26T07:43:32.689Z,29.37
2019-06-26T07:46:02.139Z,29.87
2019-06-26T07:48:31.513Z,30.11
2019-06-26T07:51:00.925Z,30.33
2019-06-26T07:53:30.404Z,30.46
2019-06-26T07:55:59.901Z,30.52
2019-06-26T07:58:29.342Z,30.42
2019-06-26T08:00:58.749Z,30.59
2019-06-26T08:03:28.209Z,30.72
2019-06-26T08:05:57.820Z,30.98
2019-06-26T08:08:27.362Z,31.28
2019-06-26T08:10:56.828Z,31.19
2019-06-26T08:13:26.308Z,31.50
2019-06-26T08:15:55.714Z,31.61
2019-06-26T08:18:25.240Z,31.23
2019-06-26T08:21:10.995Z,31.40
2019-06-26T08:23:25.892Z,31.60
2019-06-26T08:25:55.293Z,31.36
2019-06-26T08:28:24.883Z,31.16
2019-06-26T08:30:54.369Z,31.16
2019-06-26T08:33:23.790Z,31.27
2019-06-26T08:35:53.184Z,31.55
2019-06-26T08:38:22.752Z,30.61
2019-06-26T08:40:52.238Z,30.31
2019-06-26T08:43:21.734Z,29.95
2019-06-26T08:45:51.232Z,30.09
2019-06-26T08:48:38.373Z,30.34
2019-06-26T08:50:51.927Z,30.49
2019-06-26T08:53:21.310Z,30.85
2019-06-26T08:55:50.694Z,31.11
2019-06-26T08:58:20.206Z,31.23
2019-06-26T09:00:49.668Z,30.66
2019-06-26T09:03:19.043Z,31.02
2019-06-26T09:05:48.874Z,31.37
2019-06-26T09:08:18.755Z,31.53
2019-06-26T09:10:48.416Z,31.07
2019-06-26T09:13:17.868Z,30.99
2019-06-26T09:15:49.945Z,30.61
2019-06-26T09:18:34.288Z,30.40
2019-06-26T09:20:49.829Z,30.35
2019-06-26T09:23:19.201Z,30.12
2019-06-26T09:25:48.592Z,30.23
2019-06-26T09:28:18.094Z,30.71
2019-06-26T09:30:47.464Z,31.07
2019-06-26T09:33:17.005Z,31.47
2019-06-26T09:35:46.539Z,31.51
2019-06-26T09:38:15.909Z,31.73
2019-06-26T09:40:45.290Z,31.84
2019-06-26T09:43:14.815Z,32.05
2019-06-26T09:45:44.349Z,31.59
2019-06-26T09:48:13.716Z,31.68
2019-06-26T09:50:43.299Z,31.76
2019-06-26T09:53:12.770Z,31.95
2019-06-26T09:55:42.241Z,32.13
2019-06-26T09:58:13.420Z,31.88
2019-06-26T10:00:42.849Z,31.62
2019-06-26T10:03:12.375Z,31.21
2019-06-26T10:05:42.367Z,30.66
2019-06-26T10:08:11.727Z,30.49
2019-06-26T10:10:41.192Z,30.51
2019-06-26T10:13:10.596Z,30.51
2019-06-26T10:15:40.092Z,30.41
2019-06-26T10:18:09.652Z,30.88
2019-06-26T10:20:39.318Z,31.09
2019-06-26T10:23:08.680Z,31.31
2019-06-26T10:25:38.062Z,31.32
2019-06-26T10:28:07.576Z,31.24
2019-06-26T10:30:37.066Z,30.97
2019-06-26T10:33:06.437Z,31.36
2019-06-26T10:35:35.937Z,31.51
2019-06-26T10:38:05.534Z,31.57
2019-06-26T10:40:34.995Z,31.66
2019-06-26T10:43:04.674Z,31.63
2019-06-26T10:45:36.220Z,31.27
2019-06-26T10:48:05.621Z,31.54
2019-06-26T10:50:47.481Z,31.34
2019-06-26T10:53:06.444Z,31.75
2019-06-26T10:55:35.934Z,32.05
2019-06-26T10:58:05.399Z,31.98
2019-06-26T11:00:35.006Z,31.69
2019-06-26T11:03:04.982Z,32.17
2019-06-26T11:05:34.612Z,32.27
2019-06-26T11:08:03.983Z,32.41
2019-06-26T11:10:33.370Z,32.22
2019-06-26T11:13:03.054Z,32.12
2019-06-26T11:15:32.612Z,31.82
2019-06-26T11:18:02.028Z,31.24
2019-06-26T11:20:31.535Z,31.25
2019-06-26T11:23:01.065Z,31.30
2019-06-26T11:25:30.613Z,31.55
2019-06-26T11:28:00.032Z,32.04
2019-06-26T11:30:30.584Z,32.02
2019-06-26T11:32:59.938Z,31.65
2019-06-26T11:35:29.337Z,31.80
2019-06-26T11:37:58.795Z,31.87
2019-06-26T11:40:28.252Z,32.15
2019-06-26T11:42:57.727Z,31.92
2019-06-26T11:45:27.099Z,31.68
2019-06-26T11:47:56.563Z,31.67
2019-06-26T11:50:26.393Z,31.63
2019-06-26T11:52:55.746Z,31.24
2019-06-26T11:55:25.143Z,31.43
2019-06-26T11:57:54.650Z,31.22
2019-06-26T12:00:25.221Z,31.04
2019-06-26T12:02:54.617Z,31.08
2019-06-26T12:05:24.058Z,31.21
2019-06-26T12:07:53.660Z,31.00
2019-06-26T12:10:23.448Z,31.24
2019-06-26T12:12:53.016Z,31.41
2019-06-26T12:15:24.061Z,31.46
2019-06-26T12:17:53.480Z,31.21
2019-06-26T12:20:23.018Z,31.50
2019-06-26T12:22:52.551Z,31.41
2019-06-26T12:25:22.023Z,31.15
2019-06-26T12:27:51.429Z,31.12
2019-06-26T12:30:21.501Z,31.16
2019-06-26T12:33:02.298Z,31.56
2019-06-26T12:35:22.450Z,31.59
2019-06-26T12:37:51.776Z,31.35
2019-06-26T12:40:21.325Z,31.15
2019-06-26T12:42:50.836Z,31.07
2019-06-26T12:45:21.008Z,30.90
2019-06-26T12:47:50.377Z,30.90
2019-06-26T12:50:34.887Z,30.99
2019-06-26T12:52:54.354Z,30.88
2019-06-26T12:55:23.721Z,29.49
2019-06-26T12:57:53.770Z,27.38
2019-06-26T13:00:23.333Z,28.11
2019-06-26T13:02:52.712Z,28.15
2019-06-26T13:05:22.509Z,28.19
2019-06-26T13:07:52.035Z,28.15
2019-06-26T13:10:21.603Z,28.20
2019-06-26T13:12:51.005Z,28.24
2019-06-26T13:15:20.495Z,28.16
2019-06-26T13:17:49.993Z,28.12
2019-06-26T13:20:19.604Z,27.98
2019-06-26T13:22:48.953Z,27.99
2019-06-26T13:25:18.410Z,27.87
2019-06-26T13:27:48.419Z,28.02
2019-06-26T13:30:22.777Z,28.01
2019-06-26T13:32:52.290Z,28.01
2019-06-26T13:35:24.247Z,28.13
2019-06-26T13:37:52.866Z,28.24
2019-06-26T13:40:22.349Z,28.37
2019-06-26T13:42:51.818Z,28.41
2019-06-26T13:45:21.279Z,28.29
2019-06-26T13:47:50.724Z,28.15
2019-06-26T13:50:21.512Z,28.05
2019-06-26T13:52:51.040Z,27.79
2019-06-26T13:55:20.541Z,27.07
2019-06-26T13:57:49.918Z,26.40
2019-06-26T14:00:21.104Z,25.59
2019-06-26T14:02:50.642Z,25.20
2019-06-26T14:05:20.214Z,24.99
2019-06-26T14:07:49.609Z,25.00
2019-06-26T14:10:20.734Z,25.14
2019-06-26T14:12:50.271Z,25.33
2019-06-26T14:15:20.765Z,25.57
2019-06-26T14:17:52.436Z,25.80
2019-06-26T14:20:22.452Z,26.18
2019-06-26T14:22:52.116Z,26.25
2019-06-26T14:25:21.626Z,26.21
2019-06-26T14:27:50.984Z,26.43
2019-06-26T14:30:21.710Z,26.73
2019-06-26T14:32:51.222Z,26.91
2019-06-26T14:35:20.784Z,27.39
2019-06-26T14:37:50.163Z,27.43
2019-06-26T14:40:21.089Z,27.80
2019-06-26T14:42:50.672Z,27.09
2019-06-26T14:45:20.225Z,26.59
2019-06-26T14:47:50.262Z,26.50
2019-06-26T14:50:20.636Z,26.94
2019-06-26T14:52:50.036Z,27.20
2019-06-26T14:55:19.590Z,27.35
2019-06-26T14:57:49.164Z,27.41
2019-06-26T15:00:19.211Z,27.64
2019-06-26T15:02:48.648Z,27.94
2019-06-26T15:05:18.126Z,28.06
2019-06-26T15:07:50.123Z,27.84
2019-06-26T15:10:19.323Z,28.14
2019-06-26T15:12:50.171Z,28.29
2019-06-26T15:15:19.879Z,28.47
2019-06-26T15:17:49.376Z,28.52
2019-06-26T15:20:18.959Z,28.58
2019-06-26T15:22:48.443Z,28.68
2019-06-26T15:25:18.782Z,28.64
2019-06-26T15:27:49.993Z,28.72
2019-06-26T15:30:20.470Z,28.81
2019-06-26T15:32:51.349Z,28.79
2019-06-26T15:35:20.978Z,28.77
2019-06-26T15:37:50.369Z,28.60
2019-06-26T15:40:20.283Z,28.46
2019-06-26T15:42:50.035Z,28.24
2019-06-26T15:45:25.074Z,28.15
2019-06-26T15:47:55.452Z,28.03
2019-06-26T15:50:25.690Z,27.81
2019-06-26T15:52:55.684Z,27.94
2019-06-26T15:55:25.394Z,28.06
2019-06-26T15:57:55.981Z,28.01
2019-06-26T16:00:31.991Z,27.94
2019-06-26T16:03:02.217Z,27.97
2019-06-26T16:05:32.011Z,27.82
2019-06-26T16:08:01.847Z,27.83
2019-06-26T16:10:34.428Z,27.61
2019-06-26T16:13:03.737Z,27.60
2019-06-26T16:15:33.721Z,27.63
2019-06-26T16:18:17.939Z,27.62
2019-06-26T16:20:47.550Z,27.64
2019-06-26T16:23:19.042Z,27.61
2019-06-26T16:25:49.501Z,27.49
2019-06-26T16:28:19.061Z,27.27
2019-06-26T16:30:49.611Z,27.14
2019-06-26T16:33:19.071Z,26.94
2019-06-26T16:35:48.562Z,27.00
2019-06-26T16:38:19.323Z,26.98
2019-06-26T16:40:51.793Z,26.99
2019-06-26T16:43:21.286Z,26.95
2019-06-26T16:45:51.188Z,26.97
2019-06-26T16:48:20.776Z,26.98
2019-06-26T16:50:50.350Z,26.95
2019-06-26T16:53:20.154Z,26.92
2019-06-26T16:55:49.920Z,26.87
2019-06-26T16:58:19.356Z,26.81
2019-06-26T17:00:49.468Z,26.74
2019-06-26T17:03:19.018Z,26.65
2019-06-26T17:05:48.929Z,26.58
2019-06-26T17:08:21.498Z,26.50
2019-06-26T17:10:52.286Z,26.43
2019-06-26T17:13:22.655Z,26.37
2019-06-26T17:15:52.736Z,26.30
2019-06-26T17:18:22.685Z,26.23
2019-06-26T17:20:53.288Z,26.18
2019-06-26T17:23:23.352Z,26.09
2019-06-26T17:25:53.029Z,26.01
2019-06-26T17:28:24.253Z,25.89
2019-06-26T17:30:53.859Z,25.86
2019-06-26T17:33:23.750Z,25.79
2019-06-26T17:35:53.280Z,25.76
2019-06-26T17:38:22.778Z,25.74
2019-06-26T17:40:52.268Z,25.68
2019-06-26T17:43:21.726Z,25.64
2019-06-26T17:45:52.974Z,25.63
2019-06-26T17:48:22.471Z,25.53
2019-06-26T17:50:52.015Z,25.44
2019-06-26T17:53:22.358Z,25.36
2019-06-26T17:55:51.828Z,25.30
2019-06-26T17:58:21.411Z,25.21
2019-06-26T18:00:50.919Z,25.19
2019-06-26T18:03:20.316Z,25.09
2019-06-26T18:05:49.775Z,25.08
2019-06-26T18:08:19.356Z,25.08
2019-06-26T18:10:48.795Z,25.08
2019-06-26T18:13:18.400Z,25.05
2019-06-26T18:15:47.912Z,25.06
2019-06-26T18:18:17.294Z,25.01
2019-06-26T18:20:46.742Z,24.98
2019-06-26T18:23:16.243Z,24.96
2019-06-26T18:25:53.822Z,24.92
2019-06-26T18:28:16.934Z,24.87
2019-06-26T18:30:46.364Z,24.90
2019-06-26T18:33:15.889Z,24.83
2019-06-26T18:35:46.652Z,24.86
2019-06-26T18:38:16.042Z,24.82
2019-06-26T18:40:45.744Z,24.85
2019-06-26T18:43:15.268Z,24.89
2019-06-26T18:45:44.780Z,24.83
2019-06-26T18:48:14.120Z,24.81
2019-06-26T18:50:43.632Z,24.79
2019-06-26T18:53:13.805Z,24.76
2019-06-26T18:55:47.049Z,24.77
2019-06-26T18:58:16.594Z,24.79
2019-06-26T19:00:46.076Z,24.78
2019-06-26T19:03:15.528Z,24.81
2019-06-26T19:05:44.936Z,24.85
2019-06-26T19:08:14.477Z,24.80
2019-06-26T19:10:44.213Z,24.75
2019-06-26T19:13:13.611Z,24.67
2019-06-26T19:15:43.070Z,24.65
2019-06-26T19:18:12.733Z,24.64
2019-06-26T19:20:42.308Z,24.66
2019-06-26T19:23:11.824Z,24.67
2019-06-26T19:25:41.288Z,24.67
2019-06-26T19:28:10.812Z,24.69
2019-06-26T19:30:40.711Z,24.64
2019-06-26T19:33:10.169Z,24.58
2019-06-26T19:35:39.588Z,24.54
2019-06-26T19:38:09.163Z,24.56
2019-06-26T19:40:38.734Z,24.58
2019-06-26T19:43:11.019Z,24.60
2019-06-26T19:45:39.313Z,24.62
2019-06-26T19:48:08.884Z,24.56
2019-06-26T19:50:38.433Z,24.55
2019-06-26T19:53:07.838Z,24.53
2019-06-26T19:55:37.299Z,24.47
2019-06-26T19:58:06.843Z,24.43
2019-06-26T20:00:36.383Z,24.39
2019-06-26T20:03:05.876Z,24.33
2019-06-26T20:05:35.269Z,24.28
2019-06-26T20:08:04.774Z,24.19
2019-06-26T20:10:34.415Z,24.21
2019-06-26T20:13:03.886Z,24.20
2019-06-26T20:15:33.424Z,24.22
2019-06-26T20:18:04.314Z,24.22
2019-06-26T20:20:33.950Z,24.28
2019-06-26T20:23:03.459Z,24.30
2019-06-26T20:25:33.023Z,24.29
2019-06-26T20:28:02.434Z,24.28
2019-06-26T20:30:33.492Z,24.24
2019-06-26T20:33:03.095Z,24.27
2019-06-26T20:35:32.603Z,24.26
2019-06-26T20:38:02.054Z,24.22
2019-06-26T20:40:31.553Z,24.20
2019-06-26T20:43:01.040Z,24.24
2019-06-26T20:45:30.771Z,24.21
2019-06-26T20:48:00.203Z,24.17
2019-06-26T20:50:29.691Z,24.15
2019-06-26T20:52:59.096Z,23.88
2019-06-26T20:55:28.554Z,23.44
2019-06-26T20:57:58.158Z,22.97
2019-06-26T21:00:27.763Z,22.67
2019-06-26T21:02:57.200Z,22.44
2019-06-26T21:05:28.900Z,22.48
2019-06-26T21:07:57.860Z,22.57
2019-06-26T21:10:27.431Z,22.47
2019-06-26T21:12:56.835Z,22.59
2019-06-26T21:15:26.235Z,22.45
2019-06-26T21:17:55.785Z,22.47
2019-06-26T21:20:25.278Z,22.41
2019-06-26T21:22:54.767Z,22.43
2019-06-26T21:25:24.511Z,22.42
2019-06-26T21:27:54.074Z,22.41
2019-06-26T21:30:23.480Z,22.38
2019-06-26T21:32:57.542Z,22.41
2019-06-26T21:35:27.705Z,22.42
2019-06-26T21:37:57.123Z,22.44
2019-06-26T21:40:26.753Z,22.53
2019-06-26T21:42:56.331Z,22.60
2019-06-26T21:45:25.838Z,22.64
2019-06-26T21:47:55.279Z,22.69
2019-06-26T21:50:24.698Z,22.69
2019-06-26T21:52:54.960Z,22.82
2019-06-26T21:55:33.683Z,22.85
2019-06-26T21:57:55.719Z,22.68
2019-06-26T22:00:25.177Z,22.60
2019-06-26T22:02:57.690Z,22.55
2019-06-26T22:05:25.981Z,22.49
2019-06-26T22:07:55.485Z,22.43
2019-06-26T22:10:25.008Z,22.33
2019-06-26T22:12:54.410Z,22.28
2019-06-26T22:15:23.890Z,22.22
2019-06-26T22:17:53.528Z,22.25
2019-06-26T22:20:23.164Z,22.27
2019-06-26T22:22:52.722Z,22.18
2019-06-26T22:25:22.267Z,22.20
2019-06-26T22:27:51.764Z,22.14
2019-06-26T22:30:21.467Z,22.09
2019-06-26T22:32:50.972Z,22.06
2019-06-26T22:35:20.362Z,22.00
2019-06-26T22:37:49.862Z,21.97
2019-06-26T22:40:19.503Z,21.94
2019-06-26T22:42:48.967Z,22.04
2019-06-26T22:45:19.080Z,22.15
2019-06-26T22:47:48.633Z,22.16
2019-06-26T22:50:20.011Z,22.20
2019-06-26T22:52:49.490Z,22.17
2019-06-26T22:55:19.113Z,22.12
2019-06-26T22:57:48.568Z,22.07
2019-06-26T23:00:19.755Z,22.01
2019-06-26T23:02:49.289Z,21.95
2019-06-26T23:05:18.793Z,21.97
2019-06-26T23:07:48.200Z,21.94
2019-06-26T23:10:18.957Z,21.97
2019-06-26T23:12:48.475Z,21.99
2019-06-26T23:15:18.176Z,21.95
2019-06-26T23:17:47.734Z,21.86
2019-06-26T23:20:17.132Z,21.81
2019-06-26T23:22:46.720Z,21.70
2019-06-26T23:25:16.548Z,21.62
2019-06-26T23:27:45.945Z,21.57
2019-06-26T23:30:19.573Z,21.64
2019-06-26T23:32:49.113Z,21.72
2019-06-26T23:35:18.534Z,21.69
2019-06-26T23:37:48.165Z,21.63
2019-06-26T23:40:18.659Z,21.61
2019-06-26T23:42:48.066Z,21.61
2019-06-26T23:45:18.298Z,21.58
2019-06-26T23:47:47.881Z,21.55
2019-06-26T23:50:17.981Z,21.50
2019-06-26T23:52:47.405Z,21.40
2019-06-26T23:55:16.863Z,21.41
2019-06-26T23:57:58.423Z,21.40
